Pingree, North Dakota
Current Conditions -  °F | °C
As of 11:56 AM on Thursday 23 Oct 2014 (Local Time) from KJMS Reporting Station
Clear Clear  
Wind Chill: 62°   Ceiling: Unl
Heat Index: 62°   Visibility: 10mi
Dew Point: 38°   Wind: 13mph
Humidity: 41%   Direction: 220°SW
Pressure: 29.88"   Gusts: NA
Location:  47.16°N, 98.91°W
Report Text: KJMS 231656Z AUTO 22011KT 10SM CLR 17/03 A2988 RMK AO2 SLP122 T01670033
Loading
Personal Weather Stations






























Interactive Weather Map
Tropical Storm Tracking
New forecast layout! Learn more

10-Day Weather Forecast

Advertisements
Track Severe Weather on mobile